createdAt,value
2018-07-16T00:00:12.836Z,55.08
2018-07-16T00:01:12.826Z,55.35
2018-07-16T00:02:12.797Z,55.38
2018-07-16T00:03:12.788Z,55.28
2018-07-16T00:04:12.778Z,55.28
2018-07-16T00:05:12.767Z,55.68
2018-07-16T00:06:12.756Z,55.68
2018-07-16T00:07:12.762Z,56.19
2018-07-16T00:08:12.735Z,55.18
2018-07-16T00:09:12.722Z,55.58
2018-07-16T00:10:12.713Z,55.48
2018-07-16T00:11:12.700Z,55.48
2018-07-16T00:12:12.692Z,55.79
2018-07-16T00:13:12.692Z,55.68
2018-07-16T00:14:12.668Z,56.69
2018-07-16T00:15:12.657Z,55.79
2018-07-16T00:16:12.646Z,56.49
2018-07-16T00:17:12.637Z,56.21
2018-07-16T00:18:12.642Z,57.12
2018-07-16T00:19:12.613Z,56.41
2018-07-16T00:20:12.610Z,56.71
2018-07-16T00:21:12.595Z,56.31
2018-07-16T00:22:12.583Z,56.71
2018-07-16T00:23:12.574Z,56.71
2018-07-16T00:24:12.578Z,56.31
2018-07-16T00:25:12.552Z,56.41
2018-07-16T00:26:12.540Z,56.41
2018-07-16T00:27:12.530Z,57.12
2018-07-16T00:28:12.531Z,57.15
2018-07-16T00:29:12.506Z,57.32
2018-07-16T00:30:12.498Z,57.22
2018-07-16T00:31:12.496Z,57.42
2018-07-16T00:32:12.473Z,57.52
2018-07-16T00:33:12.463Z,57.15
2018-07-16T00:34:12.467Z,57.35
2018-07-16T00:35:12.440Z,56.44
2018-07-16T00:36:12.450Z,56.74
2018-07-16T00:37:12.418Z,57.24
2018-07-16T00:38:12.410Z,57.24
2018-07-16T00:39:12.399Z,56.95
2018-07-16T00:40:12.387Z,57.15
2018-07-16T00:41:12.379Z,57.35
2018-07-16T00:42:12.381Z,57.15
2018-07-16T00:43:12.354Z,57.85
2018-07-16T00:44:12.345Z,56.95
2018-07-16T00:45:12.333Z,57.65
2018-07-16T00:46:12.322Z,57.15
2018-07-16T00:47:12.329Z,57.75
2018-07-16T00:48:12.307Z,57.24
2018-07-16T00:49:12.291Z,57.45
2018-07-16T00:50:12.282Z,57.45
2018-07-16T00:51:12.271Z,57.35
2018-07-16T00:52:12.274Z,57.75
2018-07-16T00:53:12.249Z,57.75
2018-07-16T00:54:12.237Z,57.75
2018-07-16T00:55:12.240Z,57.35
2018-07-16T00:56:12.216Z,57.24
2018-07-16T00:57:12.222Z,57.65
2018-07-16T00:58:12.210Z,57.15
2018-07-16T00:59:12.183Z,56.95
2018-07-16T01:00:12.172Z,56.54
2018-07-16T01:01:12.177Z,57.35
2018-07-16T01:02:12.152Z,57.45
2018-07-16T01:03:12.143Z,57.24
2018-07-16T01:04:12.166Z,57.65
2018-07-16T01:05:12.123Z,56.74
2018-07-16T01:06:12.107Z,57.35
2018-07-16T01:07:12.098Z,57.65
2018-07-16T01:08:12.085Z,56.95
2018-07-16T01:09:12.075Z,57.75
2018-07-16T01:10:12.080Z,57.55
2018-07-16T01:11:12.053Z,57.85
2018-07-16T01:12:12.042Z,57.55
2018-07-16T01:13:12.034Z,57.78
2018-07-16T01:14:12.021Z,57.55
2018-07-16T01:15:12.052Z,57.45
2018-07-16T01:16:12.000Z,57.75
2018-07-16T01:17:11.987Z,57.65
2018-07-16T01:18:11.978Z,57.75
2018-07-16T01:19:11.968Z,57.55
2018-07-16T01:20:11.959Z,57.75
2018-07-16T01:21:11.964Z,57.45
2018-07-16T01:22:11.934Z,57.65
2018-07-16T01:23:11.926Z,57.45
2018-07-16T01:24:11.918Z,57.65
2018-07-16T01:25:11.916Z,57.48
2018-07-16T01:26:11.905Z,57.55
2018-07-16T01:27:11.893Z,57.15
2018-07-16T01:28:11.869Z,57.45
2018-07-16T01:29:11.861Z,57.17
2018-07-16T01:30:11.847Z,57.24
2018-07-16T01:31:11.837Z,57.48
2018-07-16T01:32:11.851Z,57.55
2018-07-16T01:33:11.817Z,57.24
2018-07-16T01:34:11.807Z,56.95
2018-07-16T01:35:11.796Z,57.04
2018-07-16T01:36:11.785Z,57.24
2018-07-16T01:37:11.774Z,57.55
2018-07-16T01:38:11.785Z,57.75
2018-07-16T01:39:11.753Z,57.57
2018-07-16T01:40:11.740Z,57.37
2018-07-16T01:41:11.729Z,57.57
2018-07-16T01:42:11.720Z,58.28
2018-07-16T01:43:11.709Z,57.68
2018-07-16T01:44:11.708Z,58.58
2018-07-16T01:45:11.685Z,58.38
2018-07-16T01:46:11.677Z,58.68
2018-07-16T01:47:11.664Z,59.11
2018-07-16T01:48:11.653Z,58.61
2018-07-16T01:49:11.657Z,58.71
2018-07-16T01:50:11.633Z,57.90
2018-07-16T01:51:11.622Z,58.51
2018-07-16T01:52:11.609Z,59.42
2018-07-16T01:53:11.599Z,59.42
2018-07-16T01:54:11.603Z,59.62
2018-07-16T01:55:11.580Z,59.72
2018-07-16T01:56:11.567Z,59.72
2018-07-16T01:57:11.556Z,59.62
2018-07-16T01:58:11.546Z,59.01
2018-07-16T01:59:11.555Z,59.11
2018-07-16T02:00:11.525Z,59.31
2018-07-16T02:01:11.513Z,58.71
2018-07-16T02:02:11.505Z,59.31
2018-07-16T02:03:11.494Z,59.22
2018-07-16T02:04:11.480Z,59.22
2018-07-16T02:05:11.494Z,59.72
2018-07-16T02:06:11.461Z,59.31
2018-07-16T02:07:11.451Z,59.22
2018-07-16T02:08:11.437Z,59.11
2018-07-16T02:09:11.427Z,59.24
2018-07-16T02:10:11.416Z,59.64
2018-07-16T02:11:11.421Z,59.72
2018-07-16T02:12:11.397Z,59.75
2018-07-16T02:13:11.385Z,59.72
2018-07-16T02:14:11.385Z,59.44
2018-07-16T02:15:11.362Z,59.44
2018-07-16T02:16:11.355Z,59.92
2018-07-16T02:17:11.341Z,59.64
2018-07-16T02:18:11.330Z,59.14
2018-07-16T02:19:11.338Z,59.64
2018-07-16T02:20:11.309Z,59.64
2018-07-16T02:21:11.298Z,59.64
2018-07-16T02:22:11.286Z,59.75
2018-07-16T02:23:11.280Z,60.15
2018-07-16T02:24:11.269Z,59.55
2018-07-16T02:25:11.274Z,60.05
2018-07-16T02:26:11.246Z,59.75
2018-07-16T02:27:11.236Z,59.34
2018-07-16T02:28:11.224Z,59.34
2018-07-16T02:29:11.212Z,59.64
2018-07-16T02:30:11.201Z,59.24
2018-07-16T02:31:11.204Z,59.44
2018-07-16T02:32:11.181Z,59.64
2018-07-16T02:33:11.191Z,59.55
2018-07-16T02:34:11.178Z,59.44
2018-07-16T02:35:11.148Z,59.64
2018-07-16T02:36:11.139Z,59.31
2018-07-16T02:37:11.130Z,59.75
2018-07-16T02:38:11.118Z,59.64
2018-07-16T02:39:11.116Z,59.75
2018-07-16T02:40:11.096Z,60.05
2018-07-16T02:41:11.087Z,59.44
2018-07-16T02:42:11.075Z,59.34
2018-07-16T02:43:11.064Z,60.05
2018-07-16T02:44:11.072Z,60.15
2018-07-16T02:45:11.040Z,60.05
2018-07-16T02:46:11.031Z,59.64
2018-07-16T02:47:11.018Z,60.05
2018-07-16T02:48:11.008Z,59.84
2018-07-16T02:49:10.997Z,59.88
2018-07-16T02:50:11.002Z,59.95
2018-07-16T02:51:10.977Z,59.95
2018-07-16T02:52:10.970Z,59.84
2018-07-16T02:53:10.956Z,59.55
2018-07-16T02:54:10.944Z,59.84
2018-07-16T02:55:10.956Z,60.17
2018-07-16T02:56:10.922Z,60.05
2018-07-16T02:57:10.913Z,59.77
2018-07-16T02:58:10.901Z,61.18
2018-07-16T02:59:10.892Z,60.78
2018-07-16T03:00:10.879Z,60.48
2018-07-16T03:01:10.892Z,60.78
2018-07-16T03:02:10.859Z,61.08
2018-07-16T03:03:10.850Z,60.48
2018-07-16T03:04:10.837Z,61.49
2018-07-16T03:05:10.827Z,61.18
2018-07-16T03:06:10.820Z,61.59
2018-07-16T03:07:10.821Z,61.41
2018-07-16T03:08:10.793Z,61.32
2018-07-16T03:09:10.789Z,61.18
2018-07-16T03:10:10.770Z,61.82
2018-07-16T03:11:10.764Z,60.78
2018-07-16T03:12:10.765Z,61.18
2018-07-16T03:13:10.743Z,60.58
2018-07-16T03:14:10.730Z,61.59
2018-07-16T03:15:10.724Z,61.49
2018-07-16T03:16:10.709Z,61.18
2018-07-16T03:17:10.710Z,61.18
2018-07-16T03:18:10.815Z,61.29
2018-07-16T03:19:10.679Z,61.49
2018-07-16T03:20:10.669Z,61.49
2018-07-16T03:21:10.665Z,60.78
2018-07-16T03:22:10.641Z,61.69
2018-07-16T03:23:10.633Z,61.52
2018-07-16T03:24:10.623Z,61.18
2018-07-16T03:25:10.611Z,60.68
2018-07-16T03:26:10.637Z,61.18
2018-07-16T03:27:10.592Z,61.08
2018-07-16T03:28:10.581Z,61.32
2018-07-16T03:29:10.569Z,61.49
2018-07-16T03:30:10.560Z,61.21
2018-07-16T03:31:10.545Z,60.78
2018-07-16T03:32:10.559Z,61.18
2018-07-16T03:33:10.524Z,60.71
2018-07-16T03:34:10.516Z,60.81
2018-07-16T03:35:10.505Z,61.52
2018-07-16T03:36:10.491Z,61.52
2018-07-16T03:37:10.483Z,61.52
2018-07-16T03:38:10.484Z,60.61
2018-07-16T03:39:10.474Z,61.41
2018-07-16T03:40:10.452Z,61.01
2018-07-16T03:41:10.438Z,61.01
2018-07-16T03:42:10.431Z,61.59
2018-07-16T03:43:10.418Z,60.48
2018-07-16T03:44:10.428Z,61.11
2018-07-16T03:45:10.394Z,60.58
2018-07-16T03:46:10.385Z,61.11
2018-07-16T03:47:10.375Z,61.08
2018-07-16T03:48:10.419Z,60.81
2018-07-16T03:49:10.353Z,61.89
2018-07-16T03:50:10.365Z,61.72
2018-07-16T03:51:10.336Z,61.59
2018-07-16T03:52:10.320Z,61.61
2018-07-16T03:53:10.311Z,61.61
2018-07-16T03:54:10.300Z,61.49
2018-07-16T03:55:10.289Z,61.11
2018-07-16T03:56:10.317Z,60.88
2018-07-16T03:57:10.269Z,61.08
2018-07-16T03:58:10.257Z,61.49
2018-07-16T03:59:10.244Z,61.11
2018-07-16T04:00:10.236Z,60.71
2018-07-16T04:01:10.223Z,61.52
2018-07-16T04:02:10.238Z,61.49
2018-07-16T04:03:10.206Z,61.82
2018-07-16T04:04:10.194Z,61.82
2018-07-16T04:05:10.179Z,61.41
2018-07-16T04:06:10.172Z,61.52
2018-07-16T04:07:10.158Z,61.21
2018-07-16T04:08:10.170Z,60.81
2018-07-16T04:09:10.137Z,62.12
2018-07-16T04:10:10.126Z,61.39
2018-07-16T04:11:10.118Z,62.09
2018-07-16T04:12:10.107Z,61.69
2018-07-16T04:13:10.097Z,61.79
2018-07-16T04:14:10.101Z,61.29
2018-07-16T04:15:10.075Z,61.32
2018-07-16T04:16:10.064Z,61.32
2018-07-16T04:17:10.051Z,61.52
2018-07-16T04:18:10.042Z,61.49
2018-07-16T04:19:10.050Z,61.18
2018-07-16T04:20:10.034Z,61.52
2018-07-16T04:21:10.011Z,62.09
2018-07-16T04:22:09.997Z,61.39
2018-07-16T04:23:09.985Z,61.49
2018-07-16T04:24:09.978Z,62.29
2018-07-16T04:25:09.980Z,61.79
2018-07-16T04:26:09.957Z,61.79
2018-07-16T04:27:09.959Z,61.39
2018-07-16T04:28:09.933Z,61.08
2018-07-16T04:29:09.936Z,61.69
2018-07-16T04:30:09.910Z,61.59
2018-07-16T04:31:09.905Z,61.59
2018-07-16T04:32:09.891Z,61.18
2018-07-16T04:33:09.880Z,61.25
2018-07-16T04:34:09.876Z,61.56
2018-07-16T04:35:09.855Z,61.36
2018-07-16T04:36:09.845Z,61.66
2018-07-16T04:37:09.848Z,61.05
2018-07-16T04:38:09.825Z,61.36
2018-07-16T04:39:09.835Z,61.46
2018-07-16T04:40:09.816Z,61.46
2018-07-16T04:41:09.795Z,61.05
2018-07-16T04:42:09.781Z,60.65
2018-07-16T04:43:09.770Z,60.85
2018-07-16T04:44:09.783Z,60.65
2018-07-16T04:45:09.748Z,60.85
2018-07-16T04:46:09.740Z,60.65
2018-07-16T04:47:09.728Z,61.66
2018-07-16T04:48:09.718Z,61.05
2018-07-16T04:49:09.707Z,59.72
2018-07-16T04:50:09.711Z,61.43
2018-07-16T04:51:09.685Z,60.85
2018-07-16T04:52:09.671Z,61.03
2018-07-16T04:53:09.675Z,59.64
2018-07-16T04:54:09.655Z,60.65
2018-07-16T04:55:09.643Z,60.42
2018-07-16T04:56:09.640Z,60.52
2018-07-16T04:57:09.637Z,60.83
2018-07-16T04:58:09.607Z,59.82
2018-07-16T04:59:09.598Z,59.92
2018-07-16T05:00:09.589Z,59.62
2018-07-16T05:01:09.577Z,59.82
2018-07-16T05:02:09.566Z,60.83
2018-07-16T05:03:09.577Z,59.72
2018-07-16T05:04:09.548Z,59.72
2018-07-16T05:05:09.545Z,60.12
2018-07-16T05:06:09.524Z,60.12
2018-07-16T05:07:09.512Z,59.82
2018-07-16T05:08:09.498Z,59.59
2018-07-16T05:09:09.490Z,59.89
2018-07-16T05:10:09.493Z,60.09
2018-07-16T05:11:09.467Z,59.89
2018-07-16T05:12:09.460Z,60.09
2018-07-16T05:13:09.447Z,59.89
2018-07-16T05:14:09.461Z,59.48
2018-07-16T05:15:09.425Z,59.59
2018-07-16T05:16:09.413Z,59.79
2018-07-16T05:17:09.402Z,59.69
2018-07-16T05:18:09.461Z,59.28
2018-07-16T05:19:09.380Z,59.46
2018-07-16T05:20:09.386Z,59.46
2018-07-16T05:21:09.373Z,59.56
2018-07-16T05:22:09.364Z,59.76
2018-07-16T05:23:09.339Z,59.36
2018-07-16T05:24:09.358Z,59.46
2018-07-16T05:25:09.319Z,60.06
2018-07-16T05:26:09.307Z,60.16
2018-07-16T05:27:09.307Z,60.06
2018-07-16T05:28:09.284Z,59.26
2018-07-16T05:29:09.274Z,59.23
2018-07-16T05:30:09.282Z,59.63
2018-07-16T05:31:09.252Z,58.83
2018-07-16T05:32:09.367Z,58.83
2018-07-16T05:33:09.228Z,59.10
2018-07-16T05:34:09.217Z,59.41
2018-07-16T05:35:09.208Z,59.50
2018-07-16T05:36:09.212Z,59.00
2018-07-16T05:37:09.188Z,58.07
2018-07-16T05:38:09.219Z,57.46
2018-07-16T05:39:09.163Z,57.34
2018-07-16T05:40:09.156Z,57.14
2018-07-16T05:41:09.156Z,56.30
2018-07-16T05:42:09.131Z,56.41
2018-07-16T05:43:09.119Z,56.21
2018-07-16T05:44:09.112Z,55.47
2018-07-16T05:45:09.098Z,54.47
2018-07-16T05:46:09.102Z,54.15
2018-07-16T05:47:09.077Z,53.19
2018-07-16T05:48:09.066Z,52.55
2018-07-16T05:49:09.055Z,50.77
2018-07-16T05:50:09.056Z,48.80
2018-07-16T05:51:09.083Z,47.61
2018-07-16T05:52:09.033Z,45.26
2018-07-16T05:53:09.016Z,43.68
2018-07-16T05:54:09.004Z,42.15
2018-07-16T05:55:09.000Z,41.91
2018-07-16T05:56:08.982Z,40.41
2018-07-16T05:57:08.982Z,39.83
2018-07-16T05:58:09.022Z,40.52
2018-07-16T05:59:08.954Z,40.62
2018-07-16T06:00:08.939Z,40.52
2018-07-16T06:01:08.925Z,41.71
2018-07-16T06:02:08.931Z,42.13
2018-07-16T06:03:08.906Z,43.08
2018-07-16T06:04:08.893Z,44.24
2018-07-16T06:05:08.881Z,46.12
2018-07-16T06:06:08.870Z,47.75
2018-07-16T06:07:08.876Z,48.90
2018-07-16T06:08:08.851Z,49.25
2018-07-16T06:09:08.857Z,50.97
2018-07-16T06:10:08.825Z,51.39
2018-07-16T06:11:08.819Z,51.69
2018-07-16T06:12:08.810Z,50.70
2018-07-16T06:13:08.801Z,50.89
2018-07-16T06:14:08.784Z,52.00
2018-07-16T06:15:08.782Z,51.12
2018-07-16T06:16:08.764Z,52.12
2018-07-16T06:17:08.769Z,51.72
2018-07-16T06:18:08.743Z,52.00
2018-07-16T06:19:08.743Z,50.79
2018-07-16T06:20:08.721Z,51.67
2018-07-16T06:21:08.707Z,50.95
2018-07-16T06:22:08.715Z,50.65
2018-07-16T06:23:08.701Z,49.40
2018-07-16T06:24:08.829Z,49.48
2018-07-16T06:25:08.664Z,49.13
2018-07-16T06:26:08.654Z,46.69
2018-07-16T06:27:08.643Z,45.33
2018-07-16T06:28:08.660Z,43.98
2018-07-16T06:29:08.625Z,42.41
2018-07-16T06:30:08.614Z,40.15
2018-07-16T06:31:08.601Z,38.71
2018-07-16T06:32:08.591Z,37.49
2018-07-16T06:33:08.585Z,37.15
2018-07-16T06:34:08.582Z,35.84
2018-07-16T06:35:08.564Z,35.64
2018-07-16T06:36:08.546Z,36.11
2018-07-16T06:37:08.538Z,35.63
2018-07-16T06:38:08.525Z,35.61
2018-07-16T06:39:08.526Z,34.90
2018-07-16T06:40:08.543Z,34.49
2018-07-16T06:41:08.745Z,34.49
2018-07-16T06:42:08.482Z,34.99
2018-07-16T06:43:08.487Z,34.30
2018-07-16T06:44:08.467Z,34.59
2018-07-16T06:45:08.466Z,35.41
2018-07-16T06:46:08.484Z,34.92
2018-07-16T06:47:08.432Z,35.10
2018-07-16T06:48:08.419Z,34.92
2018-07-16T06:49:08.408Z,35.30
2018-07-16T06:50:08.401Z,35.08
2018-07-16T06:51:08.389Z,35.38
2018-07-16T06:52:08.390Z,34.47
2018-07-16T06:53:08.364Z,34.67
2018-07-16T06:54:08.358Z,34.16
2018-07-16T06:55:08.425Z,34.34
2018-07-16T06:56:08.338Z,34.05
2018-07-16T06:57:08.339Z,33.89
2018-07-16T06:58:08.314Z,34.28
2018-07-16T06:59:08.332Z,33.69
2018-07-16T07:00:08.295Z,34.56
2018-07-16T07:01:08.280Z,34.25
2018-07-16T07:02:08.289Z,34.03
2018-07-16T07:03:08.262Z,33.64
2018-07-16T07:04:08.249Z,33.53
2018-07-16T07:05:08.248Z,33.04
2018-07-16T07:06:08.228Z,33.43
2018-07-16T07:07:08.219Z,33.50
2018-07-16T07:08:08.206Z,32.90
2018-07-16T07:09:08.211Z,32.34
2018-07-16T07:10:08.328Z,32.35
2018-07-16T07:11:08.176Z,32.53
2018-07-16T07:12:08.165Z,32.61
2018-07-16T07:13:08.153Z,33.22
2018-07-16T07:14:08.162Z,32.51
2018-07-16T07:15:08.132Z,32.40
2018-07-16T07:16:08.124Z,32.48
2018-07-16T07:17:08.113Z,32.48
2018-07-16T07:18:08.149Z,31.68
2018-07-16T07:19:08.091Z,31.51
2018-07-16T07:20:08.096Z,32.29
2018-07-16T07:21:08.071Z,32.39
2018-07-16T07:22:08.059Z,31.78
2018-07-16T07:23:08.048Z,32.07
2018-07-16T07:24:08.053Z,30.71
2018-07-16T07:25:08.031Z,31.91
2018-07-16T07:26:08.033Z,32.29
2018-07-16T07:27:08.009Z,32.27
2018-07-16T07:28:07.995Z,31.67
2018-07-16T07:29:07.987Z,31.39
2018-07-16T07:30:07.975Z,31.96
2018-07-16T07:31:07.978Z,31.48
2018-07-16T07:32:07.956Z,31.57
2018-07-16T07:33:07.946Z,31.28
2018-07-16T07:34:07.931Z,32.45
2018-07-16T07:35:07.990Z,31.78
2018-07-16T07:36:08.014Z,31.77
2018-07-16T07:37:07.903Z,31.29
2018-07-16T07:38:07.892Z,32.46
2018-07-16T07:39:07.879Z,32.46
2018-07-16T07:40:07.871Z,32.19
2018-07-16T07:41:07.876Z,33.05
2018-07-16T07:42:07.867Z,32.75
2018-07-16T07:43:07.837Z,32.09
2018-07-16T07:44:07.834Z,31.80
2018-07-16T07:45:07.820Z,31.78
2018-07-16T07:46:07.805Z,32.45
2018-07-16T07:47:07.856Z,32.17
2018-07-16T07:48:07.801Z,32.46
2018-07-16T07:49:07.775Z,32.37
2018-07-16T07:50:07.765Z,32.56
2018-07-16T07:51:07.759Z,32.17
2018-07-16T07:52:07.746Z,31.98
2018-07-16T07:53:07.747Z,32.95
2018-07-16T07:54:07.887Z,32.35
2018-07-16T07:55:08.222Z,31.18
2018-07-16T07:56:07.703Z,31.51
2018-07-16T07:57:07.696Z,31.59
2018-07-16T07:58:07.683Z,32.45
2018-07-16T07:59:07.672Z,32.56
2018-07-16T08:00:07.677Z,31.28
2018-07-16T08:01:07.654Z,32.46
2018-07-16T08:02:07.642Z,33.05
2018-07-16T08:03:07.630Z,31.42
2018-07-16T08:04:07.623Z,31.54
2018-07-16T08:05:07.626Z,32.53
2018-07-16T08:06:07.600Z,33.18
2018-07-16T08:07:07.589Z,33.18
2018-07-16T08:08:07.582Z,32.87
2018-07-16T08:09:07.583Z,33.15
2018-07-16T08:10:07.558Z,33.05
2018-07-16T08:11:07.550Z,32.37
2018-07-16T08:12:07.554Z,32.19
2018-07-16T08:13:07.530Z,32.09
2018-07-16T08:14:07.522Z,32.01
2018-07-16T08:15:07.510Z,32.40
2018-07-16T08:16:07.503Z,32.87
2018-07-16T08:17:07.503Z,32.40
2018-07-16T08:18:07.476Z,32.50
2018-07-16T08:19:07.468Z,31.99
2018-07-16T08:20:07.461Z,33.09
2018-07-16T08:21:07.544Z,32.50
2018-07-16T08:22:07.433Z,32.71
2018-07-16T08:23:07.427Z,31.93
2018-07-16T08:24:07.418Z,32.74
2018-07-16T08:25:07.403Z,33.72
2018-07-16T08:26:07.392Z,33.61
2018-07-16T08:27:07.398Z,32.82
2018-07-16T08:28:07.436Z,33.69
2018-07-16T08:29:07.383Z,32.61
2018-07-16T08:30:07.356Z,33.18
2018-07-16T08:31:07.342Z,32.71
2018-07-16T08:32:07.332Z,33.12
2018-07-16T08:33:07.325Z,33.10
2018-07-16T08:34:07.313Z,33.97
2018-07-16T08:35:07.319Z,32.48
2018-07-16T08:36:07.291Z,32.97
2018-07-16T08:37:07.286Z,32.39
2018-07-16T08:38:07.285Z,31.62
2018-07-16T08:39:07.328Z,32.40
2018-07-16T08:40:07.251Z,32.79
2018-07-16T08:41:07.245Z,31.16
2018-07-16T08:42:07.248Z,32.45
2018-07-16T08:43:07.227Z,33.34
2018-07-16T08:44:07.214Z,32.46
2018-07-16T08:45:07.202Z,31.89
2018-07-16T08:46:07.236Z,32.50
2018-07-16T08:47:07.196Z,33.48
2018-07-16T08:48:07.196Z,33.36
2018-07-16T08:49:07.163Z,33.59
2018-07-16T08:50:07.153Z,33.49
2018-07-16T08:51:07.144Z,33.59
2018-07-16T08:52:07.130Z,33.49
2018-07-16T08:53:07.121Z,34.39
2018-07-16T08:54:07.128Z,33.72
2018-07-16T08:55:07.114Z,33.70
2018-07-16T08:56:07.093Z,34.49
2018-07-16T08:57:07.080Z,33.31
2018-07-16T08:58:07.069Z,33.38
2018-07-16T08:59:07.083Z,33.56
2018-07-16T09:00:07.048Z,33.64
2018-07-16T09:01:07.056Z,33.64
2018-07-16T09:02:07.028Z,33.14
2018-07-16T09:03:07.034Z,32.06
2018-07-16T09:04:07.044Z,32.63
2018-07-16T09:05:07.001Z,33.70
2018-07-16T09:06:06.992Z,32.51
2018-07-16T09:07:07.044Z,33.48
2018-07-16T09:08:06.976Z,31.83
2018-07-16T09:09:06.960Z,31.35
2018-07-16T09:10:06.957Z,32.45
2018-07-16T09:11:06.962Z,32.14
2018-07-16T09:12:06.946Z,31.84
2018-07-16T09:13:07.000Z,32.30
2018-07-16T09:14:06.929Z,31.74
2018-07-16T09:15:06.900Z,31.74
2018-07-16T09:16:06.890Z,32.25
2018-07-16T09:17:06.880Z,32.56
2018-07-16T09:18:06.870Z,33.05
2018-07-16T09:19:06.905Z,33.23
2018-07-16T09:20:06.853Z,32.53
2018-07-16T09:21:06.844Z,32.63
2018-07-16T09:22:06.836Z,32.03
2018-07-16T09:23:06.824Z,32.79
2018-07-16T09:24:06.825Z,31.41
2018-07-16T09:25:06.812Z,32.76
2018-07-16T09:26:06.792Z,31.20
2018-07-16T09:27:06.787Z,30.41
2018-07-16T09:28:06.773Z,31.20
2018-07-16T09:29:06.777Z,31.39
2018-07-16T09:30:06.774Z,31.68
2018-07-16T09:31:06.744Z,30.82
2018-07-16T09:32:06.735Z,30.51
2018-07-16T09:33:06.723Z,31.49
2018-07-16T09:34:06.712Z,30.52
2018-07-16T09:35:06.704Z,31.39
2018-07-16T09:36:06.713Z,30.62
2018-07-16T09:37:06.686Z,30.25
2018-07-16T09:38:06.675Z,32.70
2018-07-16T09:39:06.758Z,31.52
2018-07-16T09:40:06.653Z,31.62
2018-07-16T09:41:06.647Z,31.41
2018-07-16T09:42:06.661Z,30.61
2018-07-16T09:43:06.626Z,31.21
2018-07-16T09:44:06.619Z,31.39
2018-07-16T09:45:06.606Z,31.68
2018-07-16T09:46:06.599Z,30.79
2018-07-16T09:47:06.586Z,30.59
2018-07-16T09:48:06.608Z,29.61
2018-07-16T09:49:06.567Z,30.49
2018-07-16T09:50:06.560Z,30.20
2018-07-16T09:51:06.551Z,29.32
2018-07-16T09:52:06.538Z,30.38
2018-07-16T09:53:06.529Z,30.30
2018-07-16T09:54:06.563Z,30.51
2018-07-16T09:55:06.511Z,30.00
2018-07-16T09:56:06.511Z,30.30
2018-07-16T09:57:06.505Z,30.40
2018-07-16T09:58:06.486Z,29.61
2018-07-16T09:59:06.482Z,30.58
2018-07-16T10:00:06.484Z,31.45
2018-07-16T10:01:06.457Z,30.76
2018-07-16T10:02:06.449Z,30.68
2018-07-16T10:03:06.439Z,30.38
2018-07-16T10:04:06.441Z,29.59
2018-07-16T10:05:06.442Z,30.08
2018-07-16T10:06:06.411Z,29.59
2018-07-16T10:07:06.404Z,28.33
2018-07-16T10:08:06.394Z,29.49
2018-07-16T10:09:06.384Z,29.88
2018-07-16T10:10:06.373Z,30.47
2018-07-16T10:11:06.377Z,28.72
2018-07-16T10:12:06.357Z,30.71
2018-07-16T10:13:06.351Z,30.05
2018-07-16T10:14:06.337Z,31.57
2018-07-16T10:15:06.328Z,32.94
2018-07-16T10:16:06.359Z,31.74
2018-07-16T10:17:06.312Z,31.44
2018-07-16T10:18:06.300Z,32.03
2018-07-16T10:19:06.287Z,31.23
2018-07-16T10:20:06.337Z,31.31
2018-07-16T10:21:06.267Z,31.29
2018-07-16T10:22:06.270Z,30.41
2018-07-16T10:23:06.250Z,29.63
2018-07-16T10:24:06.239Z,30.02
2018-07-16T10:25:06.230Z,29.44
2018-07-16T10:26:06.223Z,30.49
2018-07-16T10:27:06.231Z,30.38
2018-07-16T10:28:06.200Z,29.70
2018-07-16T10:29:06.196Z,29.60
2018-07-16T10:30:06.181Z,29.21
2018-07-16T10:31:06.168Z,29.60
2018-07-16T10:32:06.161Z,29.60
2018-07-16T10:33:06.164Z,29.70
2018-07-16T10:34:06.142Z,29.11
2018-07-16T10:35:06.132Z,29.11
2018-07-16T10:36:06.120Z,29.69
2018-07-16T10:37:06.112Z,30.37
2018-07-16T10:38:06.113Z,29.00
2018-07-16T10:39:06.100Z,28.04
2018-07-16T10:40:06.080Z,30.19
2018-07-16T10:41:06.074Z,29.39
2018-07-16T10:42:06.061Z,29.00
2018-07-16T10:43:06.054Z,29.02
2018-07-16T10:44:06.060Z,29.88
2018-07-16T10:45:06.041Z,29.30
2018-07-16T10:46:06.027Z,29.08
2018-07-16T10:47:06.015Z,28.40
2018-07-16T10:48:06.010Z,28.09
2018-07-16T10:49:06.018Z,28.39
2018-07-16T10:50:05.991Z,27.33
2018-07-16T10:51:05.981Z,28.01
2018-07-16T10:52:05.975Z,27.81
2018-07-16T10:53:05.963Z,28.20
2018-07-16T10:54:05.955Z,28.59
2018-07-16T10:55:06.003Z,28.88
2018-07-16T10:56:05.933Z,27.80
2018-07-16T10:57:05.927Z,28.09
2018-07-16T10:58:05.918Z,28.58
2018-07-16T10:59:05.905Z,29.74
2018-07-16T11:00:05.901Z,29.35
2018-07-16T11:01:05.906Z,28.28
2018-07-16T11:02:05.879Z,28.26
2018-07-16T11:03:05.917Z,29.06
2018-07-16T11:04:05.862Z,28.28
2018-07-16T11:05:05.853Z,29.17
2018-07-16T11:06:05.845Z,29.27
2018-07-16T11:07:05.833Z,29.15
2018-07-16T11:08:05.826Z,28.09
2018-07-16T11:09:05.846Z,29.28
2018-07-16T11:10:05.811Z,28.29
2018-07-16T11:11:05.799Z,28.71
2018-07-16T11:12:05.786Z,28.65
2018-07-16T11:13:05.779Z,28.97
2018-07-16T11:14:05.772Z,30.64
2018-07-16T11:15:05.916Z,29.28
2018-07-16T11:16:05.749Z,29.18
2018-07-16T11:17:05.744Z,29.98
2018-07-16T11:18:05.733Z,30.07
2018-07-16T11:19:05.737Z,28.00
2018-07-16T11:20:05.716Z,29.75
2018-07-16T11:21:05.708Z,29.24
2018-07-16T11:22:05.699Z,27.97
2018-07-16T11:23:05.701Z,28.78
2018-07-16T11:24:05.698Z,28.59
2018-07-16T11:25:05.667Z,29.95
2018-07-16T11:26:05.660Z,29.74
2018-07-16T11:27:05.658Z,29.73
2018-07-16T11:28:05.646Z,28.05
2018-07-16T11:29:05.635Z,29.21
2018-07-16T11:30:05.633Z,29.20
2018-07-16T11:31:05.616Z,29.08
2018-07-16T11:32:05.608Z,28.19
2018-07-16T11:33:05.596Z,28.18
2018-07-16T11:34:05.591Z,28.39
2018-07-16T11:35:05.596Z,28.50
2018-07-16T11:36:05.585Z,28.59
2018-07-16T11:37:05.562Z,28.39
2018-07-16T11:38:05.550Z,29.17
2018-07-16T11:39:05.542Z,28.78
2018-07-16T11:40:05.534Z,29.25
2018-07-16T11:41:05.567Z,28.00
2018-07-16T11:42:05.512Z,29.18
2018-07-16T11:43:05.505Z,28.23
2018-07-16T11:44:05.499Z,29.24
2018-07-16T11:45:05.490Z,29.53
2018-07-16T11:46:05.508Z,29.03
2018-07-16T11:47:05.487Z,27.55
2018-07-16T11:48:05.461Z,28.04
2018-07-16T11:49:05.452Z,29.41
2018-07-16T11:50:05.440Z,27.65
2018-07-16T11:51:05.433Z,28.15
2018-07-16T11:52:05.479Z,28.05
2018-07-16T11:53:05.426Z,29.13
2018-07-16T11:54:05.400Z,29.60
2018-07-16T11:55:05.391Z,29.31
2018-07-16T11:56:05.433Z,29.79
2018-07-16T11:57:05.373Z,28.12
2018-07-16T11:58:05.376Z,27.93
2018-07-16T11:59:05.514Z,29.38
2018-07-16T12:00:05.343Z,28.20
2018-07-16T12:01:05.337Z,27.81
2018-07-16T12:02:05.338Z,28.71
2018-07-16T12:03:05.318Z,29.10
2018-07-16T12:04:05.319Z,28.20
2018-07-16T12:05:05.332Z,29.13
2018-07-16T12:06:05.287Z,30.02
2018-07-16T12:07:05.280Z,29.55
2018-07-16T12:08:05.272Z,30.74
2018-07-16T12:09:05.261Z,30.64
2018-07-16T12:10:05.275Z,30.64
2018-07-16T12:11:05.243Z,30.04
2018-07-16T12:12:05.230Z,29.03
2018-07-16T12:13:05.223Z,29.42
2018-07-16T12:14:05.213Z,29.52
2018-07-16T12:15:05.200Z,29.21
2018-07-16T12:16:05.204Z,28.52
2018-07-16T12:17:05.183Z,29.20
2018-07-16T12:18:05.174Z,28.01
2018-07-16T12:19:05.163Z,28.50
2018-07-16T12:20:05.154Z,28.20
2018-07-16T12:21:05.161Z,28.58
2018-07-16T12:22:05.133Z,27.89
2018-07-16T12:23:05.128Z,28.57
2018-07-16T12:24:05.119Z,28.36
2018-07-16T12:25:05.126Z,27.68
2018-07-16T12:26:05.099Z,27.78
2018-07-16T12:27:05.092Z,28.08
2018-07-16T12:28:05.080Z,27.09
2018-07-16T12:29:05.072Z,27.98
2018-07-16T12:30:05.063Z,27.89
2018-07-16T12:31:05.069Z,27.98
2018-07-16T12:32:05.101Z,26.32
2018-07-16T12:33:05.034Z,27.70
2018-07-16T12:34:05.027Z,28.39
2018-07-16T12:35:05.017Z,27.69
2018-07-16T12:36:05.009Z,27.69
2018-07-16T12:37:04.997Z,27.79
2018-07-16T12:38:05.004Z,27.40
2018-07-16T12:39:04.982Z,27.01
2018-07-16T12:40:04.984Z,27.51
2018-07-16T12:41:04.963Z,27.80
2018-07-16T12:42:04.954Z,27.62
2018-07-16T12:43:04.962Z,27.80
2018-07-16T12:44:04.933Z,28.11
2018-07-16T12:45:04.931Z,27.80
2018-07-16T12:46:04.917Z,27.70
2018-07-16T12:47:05.018Z,27.31
2018-07-16T12:48:04.945Z,27.51
2018-07-16T12:49:04.890Z,27.59
2018-07-16T12:50:04.884Z,27.00
2018-07-16T12:51:04.872Z,27.95
2018-07-16T12:52:04.863Z,27.76